Bishop Hill, Illinois
Current Conditions -  °F | °C
As of 2:15 AM on Sunday 21 Dec 2014 (Local Time) from KGBG Reporting Station
Haze Haze  
Wind Chill: 30°   Ceiling: 3200
Heat Index: 34°   Visibility: 5mi
Dew Point: 32°   Wind: 5mph
Humidity: 94%   Direction: 140°SE
Pressure: 30.18"   Gusts: NA
Location:  41.2°N, 90.12°W
Report Text: KGBG 210815Z AUTO 14004KT 5SM BR OVC032 01/00 A3018 RMK AO2 T00110002
Loading
Personal Weather Stations






























Interactive Weather Map New forecast layout! Learn more

10-Day Weather Forecast

Advertisements
Track Severe Weather on mobile